Relevés horaires Matro (Suisse)


Relevés horaires à Matro - Jeudi 25 Avr. 2019
Heure UTC1 Température [°C] Vent [km/h] Hum. [%] Pres.4 [hPa] Visi. [Km] Nébu. [octa] Préc.5 [mm] Cond.
2m. Res. Ros. Dir.2 Vit. Moy. Raf.3
23:00 2.1 -6.3 2.1 SSE 68.5 -- 96.3 100 850(-1.4/3h) -- -- -- --
22:00 1.6 -7 1.3 SSE 68.5 -- 96.3 98 850(-0.9/3h) -- -- -- --
21:00 2.0 -6.4 2.0 SSE 68.5 -- 100.0 100 850(-0.4/3h) -- -- -- --
20:00 1.3 -7.7 1.2 SSE 74.1 -- 96.3 99 850(-0.8/3h) -- -- -- --
19:00 1.4 -7.2 1.3 SSE 66.7 -- 94.5 99 850(-0.9/3h) -- -- -- --
18:00 1.0 -7.6 1.0 SSE 63.0 -- 87.0 100 850(-0.9/3h) -- -- -- --
17:00 0.6 -8.2 0.6 SSE 64.8 -- 81.5 100 850(-0.9/3h) -- -- -- --
16:00 -0.1 -8.5 -0.2 SSE 53.7 -- 74.1 99 850(-0.7/3h) -- -- -- --
15:00 -0.4 -9.2 -0.7 SSE 57.4 -- 87.0 98 850(-0.7/3h) -- -- -- --
14:00 -0.2 -9.1 -0.2 SSE 61.1 -- 87.0 100 850(-0.7/3h) -- -- -- --
13:00 -0.2 -8.2 -0.6 SSE 46.3 -- 57.4 97 850(-0.6/3h) -- -- -- --
12:00 -0.1 -7.7 -1.0 S 42.6 -- 66.7 94 850(-0.2/3h) -- -- -- --
11:00 0.0 -7.7 -0.7 S 44.4 -- 64.8 95 850(-0.1/3h) -- -- -- --
11:00 0.0 -7.7 -0.7 S 44.4 -- 64.8 95 850(-0.1/3h) -- -- -- --
10:00 -0.2 -7.7 -1.3 SSE 40.7 -- 57.4 92 850(0.8/3h) -- -- -- --
10:00 -0.2 -7.7 -1.3 SSE 40.7 -- 57.4 92 850(0.8/3h) -- -- -- --
09:00 -0.6 -7.9 -2.3 SSE 37.0 -- 66.7 88 850(0.7/3h) -- -- -- --
09:00 -0.6 -7.9 -2.3 SSE 37.0 -- 66.7 88 850(0.7/3h) -- -- -- --
08:00 -0.7 -8.5 -2.1 SSE 42.6 -- 59.3 90 850(1.1/3h) -- -- -- --
07:00 -1.2 -9.5 -3.4 SSE 46.3 -- 66.7 85 850(1.1/3h) -- -- -- --
06:00 -1.3 -9.6 -5.1 SSE 46.3 -- 79.6 75 850(0.5/3h) -- -- -- --
05:00 -1.4 -9.9 -3.8 SSE 48.2 -- 70.4 84 850(0.1/3h) -- -- -- --
04:00 -1.2 -10.2 -1.6 SSE 55.6 -- 75.9 97 850(-0.1/3h) -- -- -- --
03:00 -0.4 -8.1 -0.5 SSE 42.6 -- 79.6 99 850(0.9/3h) -- -- -- --

1 Coordinated Universal Time. Actuellement il est 00:00 locale et 22:00 UTC.

2 Le vent souffle depuis la direction indiquée vers la direction oposée.

3 Les rafales max. sont disponible 40 min après l'heure du relevé.

4 Pour les stations d'altitude (plus de 600m) le géopotentiel du niveau le plus proche de la pression obligatoire est indiqué.

5 Les stations disposant d'un diffuseur peuvent indiquer "trace". Cela signifie que des précipitations ont touchés le sol mais que la quantité est inférieure à 0.1 mm.

Copyright

Les données affichées sur cette page sont la propriété exclusive de Météo Suisse.

Récapitulatif de la journée
Température [°C] Vent [km/h] Ensoleillement4 [h] Precipitations totale5 [mm] Pression [Hpa]
Min1 Max.2 Moy.3 Max. Min Max.
-1.5 1.1 0 100.0 2 h 6 min 0 850.0 850.0

1 Température minimale relevée entre 18:00 UTC la veille et 18:00 UTC le jour donné.

2 Température maximale relevée entre 06:00 UTC le jour donné et 06:00 UTC le lendemain.

3 Vent moyen de la journée basé sur les relevés horaires.

4 Ensoleillement en heures relevé entre 06:00 UTC la veille et 06:00 UTC le jour donné.

5 Précipitations totales tombées entre 06:00 UTC la jour donné et 06:00 UTC le lendemain.

Graphiques horaires